Gainesville Regional Airport Gainesville US
ICAO: KGNV
IATA: GNV
Category: Medium
Scheduled Services: Yes

Elevation: 152 ft
TransAlt. 18000 ft.

Airport Communications:
JACKSONVILLE APP/DEP:118.175
ATIS:127.15
CTAF:119.55
GND:121.7
RDO:122.1
RDO:122.2
TWR:119.55
UNICOM:122.95

KGNV Zoom In..

If you have problems with the map follow the link
https://www.worldairports.se/pages/airport.php?
ICAO=KGNV

Runways:

(A) RW 07 length 4158 ft width 100 ft
---- / hdg 65

(B) RW 11 length 7504 ft width 150 ft
---- / hdg 106

(C) RW 25 length 4158 ft width 100 ft
---- / hdg 245

(D) RW 29 length 7504 ft width 150 ft
ILS 111.30 / hdg 286

Location; KGNV
Day. 14 / Time. 18.53 Zulu
* Altimeter: 29.85
* Temperature: 21° c. 69.8°f.
* Wind from: 270° Speed 13 kn.
Dewpoint: 11° c.
Visibility: 10 Statute Miles.
Clouds: Clear (automated report).

KGNV 141853Z 27013KT 10SM CLR 21/11 A2985 RMK AO2 SLP105 T02060111


Wind From 270°
Speed 13 kn.

 
 
jpsmedia worldairports.se 2019   terms of use